Nordic Dalian — D5NB8 — position and weather

sailwx.info

Track history (hours):
 
Tides and Currents Weather Stations Pressure Air Temp Water Temp Dewpoint Dewpoint Depression Visibility Wind Speed Wind Dir Waves Ship Positions

Nordic Dalian

Last reported at 2017-Dec-15 01:01 UTC. Time now 2017-Dec-18 05:17 UTC.
Position S 24°13' W 045°57'.

Length 180 m; draft 7.2 m.

Type: Cargo ship. MMSI: 636092759.

Date/timePositionNaut miles runAvg speedWind from/ knotsBaromVisibWave heightAir tempDewpointWater temp
2017-Dec-15 01:01S 24°13' W 045°57'511.0
2017-Dec-15 00:31S 24°11' W 046°03'20 0.7
2017-Dec-13 21:26S 23°57' W 046°18'2 5.3
2017-Dec-13 21:00S 23°60' W 046°19'3 6.0
2017-Dec-13 20:30S 24°02' W 046°20'3 5.2
2017-Dec-13 20:00S 24°04' W 046°18'1 1.9
2017-Dec-13 19:30S 24°05' W 046°18'0 0.0
2017-Dec-13 19:00S 24°05' W 046°18'0 0.0
2017-Dec-13 18:30S 24°05' W 046°18'0 0.0
2017-Dec-13 18:00S 24°05' W 046°18'0 0.0
2017-Dec-13 17:30S 24°05' W 046°18'0 0.0
2017-Dec-13 16:54S 24°05' W 046°18'0 0.0
2017-Dec-13 16:30S 24°05' W 046°18'0 0.0
2017-Dec-13 16:00S 24°05' W 046°18'0 0.0
2017-Dec-13 15:30S 24°05' W 046°18'0 0.0
2017-Dec-13 15:00S 24°05' W 046°18'0 0.0
2017-Dec-13 14:30S 24°05' W 046°18'0 0.0
2017-Dec-13 14:00S 24°05' W 046°18'0 0.0
2017-Dec-13 13:30S 24°05' W 046°18'0 0.0
2017-Dec-13 13:00S 24°05' W 046°18'0 0.0
2017-Dec-13 12:30S 24°05' W 046°18'0 0.0
2017-Dec-13 12:00S 24°05' W 046°18'0 0.0
2017-Dec-13 11:30S 24°05' W 046°18'0 0.0
2017-Dec-13 11:00S 24°05' W 046°18'0 0.0
2017-Dec-13 10:30S 24°05' W 046°18'0 0.0
2017-Dec-13 10:00S 24°05' W 046°18'0 0.0
2017-Dec-13 09:30S 24°05' W 046°18'0 0.0
2017-Dec-13 08:48S 24°05' W 046°18'0 0.0
2017-Dec-13 08:30S 24°05' W 046°18'0 0.0
2017-Dec-13 08:00S 24°05' W 046°18'0 0.0
2017-Dec-13 07:21S 24°05' W 046°18'0 0.0
2017-Dec-13 07:00S 24°05' W 046°18'0 0.0
2017-Dec-13 06:30S 24°05' W 046°18'0 0.0
2017-Dec-13 06:00S 24°05' W 046°18'0 0.0
2017-Dec-13 05:30S 24°05' W 046°18'0 0.0
2017-Dec-13 05:00S 24°05' W 046°18'0 0.0
2017-Dec-13 04:30S 24°05' W 046°18'0 0.0
2017-Dec-13 04:00S 24°05' W 046°18'0 0.0
2017-Dec-13 03:24S 24°05' W 046°18'0 0.0
2017-Dec-13 03:00S 24°05' W 046°18'0 0.0
2017-Dec-13 02:30S 24°05' W 046°18'0 0.1
2017-Dec-13 02:00S 24°05' W 046°18'0 0.0
2017-Dec-13 01:30S 24°05' W 046°18'0 0.0
2017-Dec-13 01:00S 24°05' W 046°18'0 0.0
2017-Dec-13 00:30S 24°05' W 046°18'0 0.0
2017-Dec-13 00:00S 24°05' W 046°18'0 0.0
2017-Dec-12 23:30S 24°05' W 046°18'0 0.0
2017-Dec-12 23:00S 24°05' W 046°18'0 0.0
2017-Dec-12 22:24S 24°05' W 046°18'0 0.0
2017-Dec-12 22:00S 24°05' W 046°18'0 0.0
2017-Dec-12 21:30S 24°05' W 046°18'0 0.0
2017-Dec-12 21:00S 24°05' W 046°18'0 0.0
2017-Dec-12 20:30S 24°05' W 046°18'0 0.0
2017-Dec-12 20:00S 24°05' W 046°18'0 0.0
2017-Dec-12 19:30S 24°05' W 046°18'0 0.0
2017-Dec-12 18:54S 24°05' W 046°18'0 0.0
2017-Dec-12 18:30S 24°05' W 046°18'0 0.0
2017-Dec-12 18:00S 24°05' W 046°18'0 0.1
2017-Dec-12 17:30S 24°05' W 046°18'0 0.1
2017-Dec-12 17:00S 24°05' W 046°18'0 0.0
2017-Dec-12 16:30S 24°05' W 046°18'0 0.0
2017-Dec-12 16:00S 24°05' W 046°18'0 0.0
2017-Dec-12 15:27S 24°05' W 046°18'0 0.1
2017-Dec-12 15:00S 24°05' W 046°18'0 0.0
2017-Dec-12 14:30S 24°05' W 046°18'0 0.0
2017-Dec-12 14:00S 24°05' W 046°18'0 0.0
2017-Dec-12 13:30S 24°05' W 046°18'0 0.0
2017-Dec-12 13:00S 24°05' W 046°18'0 0.0
2017-Dec-12 12:18S 24°05' W 046°18'0 0.0
2017-Dec-12 12:00S 24°05' W 046°18'0 0.0
2017-Dec-12 11:27S 24°05' W 046°18'0 0.0
2017-Dec-12 11:00S 24°05' W 046°18'0 0.0
2017-Dec-12 10:30S 24°05' W 046°18'0 0.0
2017-Dec-12 09:57S 24°05' W 046°18'0 0.0
2017-Dec-12 09:30S 24°05' W 046°18'0 0.0
2017-Dec-12 08:54S 24°05' W 046°18'0 0.0
2017-Dec-12 08:30S 24°05' W 046°18'0 0.0
2017-Dec-12 08:00S 24°05' W 046°18'0 0.0
2017-Dec-12 07:30S 24°05' W 046°18'0 0.0
2017-Dec-12 06:57S 24°05' W 046°18'0 0.0
2017-Dec-12 06:30S 24°05' W 046°18'0 0.0
2017-Dec-12 06:00S 24°05' W 046°18'0 0.0
2017-Dec-12 05:27S 24°05' W 046°18'0 0.0
2017-Dec-12 05:00S 24°05' W 046°18'0 0.0
2017-Dec-12 04:27S 24°05' W 046°18'0 0.0
2017-Dec-12 04:00S 24°05' W 046°18'0 0.0
2017-Dec-12 03:30S 24°05' W 046°18'0 0.0
2017-Dec-12 02:57S 24°05' W 046°18'0 0.0
2017-Dec-12 02:30S 24°05' W 046°18'0 0.0
2017-Dec-12 01:57S 24°05' W 046°18'0 0.1
2017-Dec-12 01:24S 24°05' W 046°18'0 0.1
2017-Dec-12 01:00S 24°05' W 046°18'0 0.0
2017-Dec-12 00:30S 24°05' W 046°18'0 0.0
2017-Dec-12 00:00S 24°05' W 046°18'0 0.0
2017-Dec-11 23:18S 24°05' W 046°18'0 0.1
2017-Dec-11 23:00S 24°05' W 046°18'0 0.0
2017-Dec-11 22:30S 24°05' W 046°18'0 0.1
2017-Dec-11 22:00S 24°05' W 046°18'0 0.1
2017-Dec-11 21:24S 24°05' W 046°18'0 0.0
2017-Dec-11 20:54S 24°05' W 046°18'0 0.0
2017-Dec-11 20:30S 24°05' W 046°18'0 0.0
2017-Dec-11 20:00S 24°05' W 046°18'0 0.0
2017-Dec-11 19:30S 24°05' W 046°18'0 0.1
2017-Dec-11 19:00S 24°05' W 046°18'0 0.0
2017-Dec-11 18:30S 24°05' W 046°18'0 0.0
2017-Dec-11 18:00S 24°05' W 046°18'0 0.0
2017-Dec-11 17:30S 24°05' W 046°18'0 0.1
2017-Dec-11 17:00S 24°05' W 046°18'0 0.1
2017-Dec-11 16:30S 24°05' W 046°18'0 0.1
2017-Dec-11 15:54S 24°05' W 046°18'0 0.1
2017-Dec-11 15:30S 24°05' W 046°18'0 0.0
2017-Dec-11 15:00S 24°05' W 046°18'0 0.0
2017-Dec-11 14:30S 24°05' W 046°18'0 0.0
2017-Dec-11 14:00S 24°05' W 046°18'0 0.0
2017-Dec-11 13:30S 24°05' W 046°18'0 0.0
2017-Dec-11 13:00S 24°05' W 046°18'0 0.0
2017-Dec-11 12:30S 24°05' W 046°18'0 0.0
2017-Dec-11 12:00S 24°05' W 046°18'0 0.0
2017-Dec-11 11:30S 24°05' W 046°18'0 0.0
2017-Dec-11 11:00S 24°05' W 046°18'0 0.0
2017-Dec-11 10:24S 24°05' W 046°18'0 0.0
2017-Dec-11 10:00S 24°05' W 046°18'0 0.0
2017-Dec-11 09:30S 24°05' W 046°18'0 0.0
2017-Dec-11 09:00S 24°05' W 046°18'0 0.0
2017-Dec-11 08:30S 24°05' W 046°18'0 0.0
2017-Dec-11 08:00S 24°05' W 046°18'0 0.0
2017-Dec-11 07:30S 24°05' W 046°18'0 0.0
2017-Dec-11 07:00S 24°05' W 046°18'0 0.0
2017-Dec-11 06:30S 24°05' W 046°18'0 0.0
2017-Dec-11 06:00S 24°05' W 046°18'0 0.0
2017-Dec-11 05:30S 24°05' W 046°18'0 0.0
2017-Dec-11 05:00S 24°05' W 046°18'0 0.0
2017-Dec-11 04:30S 24°05' W 046°18'0 0.0
2017-Dec-11 03:54S 24°05' W 046°18'0 0.0
2017-Dec-11 02:42S 24°05' W 046°18'0 0.0
2017-Dec-11 02:30S 24°05' W 046°18'0 0.0
2017-Dec-11 02:00S 24°05' W 046°18'0 0.0
2017-Dec-11 01:30S 24°05' W 046°18'0 0.0
2017-Dec-11 00:57S 24°05' W 046°18'0 0.0
2017-Dec-11 00:30S 24°05' W 046°18'0 0.0
2017-Dec-11 00:00S 24°05' W 046°18'0 0.0
2017-Dec-10 23:30S 24°05' W 046°18'0 0.0
2017-Dec-10 22:57S 24°05' W 046°18'0 0.0
2017-Dec-10 22:30S 24°05' W 046°18'0 0.0
2017-Dec-10 22:00S 24°05' W 046°18'0 0.0
2017-Dec-10 21:30S 24°05' W 046°18'0 0.0
2017-Dec-10 21:00S 24°05' W 046°18'0 0.0
2017-Dec-10 20:30S 24°05' W 046°18'0 0.0
2017-Dec-10 20:00S 24°05' W 046°18'0 0.0
2017-Dec-10 19:30S 24°05' W 046°18'0 0.0
2017-Dec-10 18:54S 24°05' W 046°18'0 0.0
2017-Dec-10 18:30S 24°05' W 046°18'0 0.0
2017-Dec-10 17:57S 24°05' W 046°18'0 0.0
2017-Dec-10 17:30S 24°05' W 046°18'0 0.0
2017-Dec-10 17:00S 24°05' W 046°18'0 0.0
2017-Dec-10 16:30S 24°05' W 046°18'0 0.0
2017-Dec-10 16:00S 24°05' W 046°18'0 0.1
2017-Dec-10 15:30S 24°05' W 046°18'0 0.1
2017-Dec-10 15:00S 24°05' W 046°18'0 0.1
2017-Dec-10 14:30S 24°05' W 046°18'0 0.1
2017-Dec-10 14:00S 24°05' W 046°18'0 0.0
2017-Dec-10 13:30S 24°05' W 046°18'0 0.0
2017-Dec-10 13:00S 24°05' W 046°18'0 0.0
2017-Dec-10 12:24S 24°05' W 046°18'0 0.0
2017-Dec-10 12:00S 24°05' W 046°18'0 0.1
2017-Dec-10 11:30S 24°05' W 046°18'0 0.0
2017-Dec-10 11:00S 24°05' W 046°18'0 0.0
2017-Dec-10 10:30S 24°05' W 046°18'0 0.0
2017-Dec-10 10:00S 24°05' W 046°18'0 0.1
2017-Dec-10 09:30S 24°05' W 046°18'0 0.0
2017-Dec-10 09:00S 24°05' W 046°18'0 0.0
2017-Dec-10 08:30S 24°05' W 046°18'0 0.0
2017-Dec-10 08:00S 24°05' W 046°18'0 0.0
2017-Dec-10 07:30S 24°05' W 046°18'0 0.0
2017-Dec-10 07:00S 24°05' W 046°18'0 0.1
2017-Dec-10 06:30S 24°05' W 046°18'0 0.0
2017-Dec-10 06:00S 24°05' W 046°18'0 0.0
2017-Dec-10 05:30S 24°05' W 046°18'0 0.0
2017-Dec-10 05:00S 24°05' W 046°18'0 0.1
2017-Dec-10 04:12S 24°05' W 046°18'0 0.0
2017-Dec-10 04:00S 24°05' W 046°18'0 0.0
2017-Dec-10 03:30S 24°05' W 046°18'0 0.1
2017-Dec-10 03:00S 24°05' W 046°18'0 0.1
2017-Dec-10 02:30S 24°05' W 046°18'0 0.0
2017-Dec-10 02:00S 24°05' W 046°18'0 0.1
2017-Dec-10 01:30S 24°05' W 046°18'0 0.0
2017-Dec-10 01:00S 24°05' W 046°18'0 0.0
2017-Dec-10 00:24S 24°05' W 046°18'0 0.0
2017-Dec-09 23:54S 24°05' W 046°18'0 0.0
2017-Dec-09 23:30S 24°05' W 046°18'0 0.0
2017-Dec-09 23:00S 24°05' W 046°18'0 0.0
2017-Dec-09 22:30S 24°05' W 046°18'0 0.0
2017-Dec-09 22:00S 24°05' W 046°18'0 0.1
2017-Dec-09 21:30S 24°05' W 046°18'0 0.1
2017-Dec-09 21:00S 24°05' W 046°18'0 0.0
2017-Dec-09 20:30S 24°05' W 046°18'0 0.0
2017-Dec-09 20:00S 24°05' W 046°18'0 0.0
2017-Dec-09 19:30S 24°05' W 046°18'0 0.0
2017-Dec-09 19:00S 24°05' W 046°18'0 0.0
2017-Dec-09 18:30S 24°05' W 046°18'0 0.0
2017-Dec-09 17:51S 24°05' W 046°18'0 0.0
2017-Dec-09 17:30S 24°05' W 046°18'0 0.0
2017-Dec-09 17:00S 24°05' W 046°18'0 0.0
2017-Dec-09 16:30S 24°05' W 046°18'0 0.0
2017-Dec-09 16:00S 24°05' W 046°18'0 0.0
2017-Dec-09 15:24S 24°05' W 046°18'0 0.0
2017-Dec-09 14:57S 24°05' W 046°18'0 0.0
2017-Dec-09 14:30S 24°05' W 046°18'0 0.0
2017-Dec-09 14:00S 24°05' W 046°18'0 0.1
2017-Dec-09 13:30S 24°05' W 046°18'0 0.0
2017-Dec-09 13:00S 24°05' W 046°18'0 0.0
2017-Dec-09 12:30S 24°05' W 046°18'0 0.0
2017-Dec-09 12:00S 24°05' W 046°18'0 0.1
2017-Dec-09 11:30S 24°05' W 046°18'0 0.1
2017-Dec-09 11:00S 24°05' W 046°18'0 0.0
2017-Dec-09 10:27S 24°05' W 046°18'0 0.1
2017-Dec-09 10:00S 24°05' W 046°18'0 0.0
2017-Dec-09 09:30S 24°05' W 046°18'0 0.0
2017-Dec-09 09:00S 24°05' W 046°18'0 0.0
2017-Dec-09 08:30S 24°05' W 046°18'0 0.0
2017-Dec-09 08:00S 24°05' W 046°18'0 0.0
2017-Dec-09 07:30S 24°05' W 046°18'0 0.0
2017-Dec-09 06:57S 24°05' W 046°18'0 0.0
2017-Dec-09 06:30S 24°05' W 046°18'0 0.1
2017-Dec-09 06:00S 24°05' W 046°18'0 0.0
2017-Dec-09 05:27S 24°05' W 046°18'0 0.0
2017-Dec-09 05:00S 24°05' W 046°18'0 0.0
2017-Dec-09 04:30S 24°05' W 046°18'0 0.0
2017-Dec-09 03:57S 24°05' W 046°18'0 0.0
2017-Dec-09 03:30S 24°05' W 046°18'0 0.0
2017-Dec-09 03:00S 24°05' W 046°18'0 0.0
2017-Dec-09 02:30S 24°05' W 046°18'0 0.0
2017-Dec-09 01:57S 24°05' W 046°18'0 0.0
2017-Dec-09 01:30S 24°05' W 046°18'0 0.0
2017-Dec-09 01:00S 24°05' W 046°18'0 0.0
2017-Dec-09 00:30S 24°05' W 046°18'0 0.0
2017-Dec-09 00:00S 24°05' W 046°18'0 0.0
2017-Dec-08 23:24S 24°05' W 046°18'0 0.0
2017-Dec-08 23:00S 24°05' W 046°18'0 0.0
2017-Dec-08 22:18S 24°05' W 046°18'0 0.1
2017-Dec-08 22:00S 24°05' W 046°18'0 0.0
2017-Dec-08 21:30S 24°05' W 046°18'0 0.0
2017-Dec-08 20:48S 24°05' W 046°18'0 0.0
2017-Dec-08 20:24S 24°05' W 046°18'0 0.0
2017-Dec-08 19:48S 24°05' W 046°18'0 0.1
2017-Dec-08 19:30S 24°05' W 046°18'0 0.0
2017-Dec-08 19:00S 24°05' W 046°18'0 0.0
2017-Dec-08 18:30S 24°05' W 046°18'0 0.0
2017-Dec-08 18:00S 24°05' W 046°18'0 0.0
2017-Dec-08 17:30S 24°05' W 046°18'0 0.0
2017-Dec-08 16:54S 24°05' W 046°18'0 0.0
2017-Dec-08 16:30S 24°05' W 046°18'0 0.0
2017-Dec-08 15:54S 24°05' W 046°18'0 0.1
2017-Dec-08 15:30S 24°05' W 046°18'0 0.1
2017-Dec-08 15:00S 24°05' W 046°18'0 0.0
2017-Dec-08 14:30S 24°05' W 046°18'0 0.0
2017-Dec-08 14:00S 24°05' W 046°18'0 0.1
2017-Dec-08 13:30S 24°05' W 046°18'0 0.0
2017-Dec-08 13:00S 24°05' W 046°18'0 0.0
2017-Dec-08 12:24S 24°05' W 046°18'0 0.0
2017-Dec-08 11:48S 24°05' W 046°18'0 0.0
2017-Dec-08 11:30S 24°05' W 046°18'0 0.0
2017-Dec-08 11:00S 24°05' W 046°18'0 0.1
2017-Dec-08 10:30S 24°05' W 046°18'0 0.0
2017-Dec-08 10:00S 24°05' W 046°18'0 0.0
2017-Dec-08 09:30S 24°05' W 046°18'0 0.0
2017-Dec-08 08:57S 24°05' W 046°18'0 0.0
2017-Dec-08 08:30S 24°05' W 046°18'0 0.0
2017-Dec-08 08:00S 24°05' W 046°18'0 0.0
2017-Dec-08 07:30S 24°05' W 046°18'0 0.0
2017-Dec-08 07:00S 24°05' W 046°18'0 0.0
2017-Dec-08 06:30S 24°05' W 046°18'0 0.0
2017-Dec-08 06:00S 24°05' W 046°18'0 0.0
2017-Dec-08 05:30S 24°05' W 046°18'0 0.0
2017-Dec-08 05:00S 24°05' W 046°18'0 0.0
2017-Dec-08 04:30S 24°05' W 046°18'0 0.1
2017-Dec-08 03:54S 24°05' W 046°18'0 0.0
2017-Dec-08 03:30S 24°05' W 046°18'0 0.0
2017-Dec-08 03:00S 24°05' W 046°18'0 0.0
2017-Dec-08 02:30S 24°05' W 046°18'0 0.0
2017-Dec-08 01:48S 24°05' W 046°18'0 0.0
2017-Dec-08 01:30S 24°05' W 046°18'0 0.0
2017-Dec-08 00:54S 24°05' W 046°18'0 0.0
2017-Dec-08 00:30S 24°05' W 046°18'0 0.0
2017-Dec-08 00:00S 24°05' W 046°18'0 0.0
2017-Dec-07 23:12S 24°05' W 046°18'0 0.0
2017-Dec-07 22:57S 24°05' W 046°18'0 0.0
2017-Dec-07 22:21S 24°05' W 046°18'0 0.0
2017-Dec-07 21:54S 24°05' W 046°18'0 0.0
2017-Dec-07 21:24S 24°05' W 046°18'0 0.0
2017-Dec-07 21:00S 24°05' W 046°18'0 0.0
2017-Dec-07 20:30S 24°05' W 046°18'0 0.0
2017-Dec-07 20:00S 24°05' W 046°18'0 0.0
2017-Dec-07 19:30S 24°05' W 046°18'0 0.0
2017-Dec-07 19:00S 24°05' W 046°18'0 0.0
2017-Dec-07 18:24S 24°05' W 046°18'0 0.0
2017-Dec-07 17:54S 24°05' W 046°18'0 0.0
2017-Dec-07 17:24S 24°05' W 046°18'0 0.0
2017-Dec-07 17:00S 24°05' W 046°18'0 0.0
2017-Dec-07 16:30S 24°05' W 046°18'0 0.0
2017-Dec-07 15:57S 24°05' W 046°18'0 0.0
2017-Dec-07 15:30S 24°05' W 046°18'0 0.0
2017-Dec-07 14:54S 24°05' W 046°18'0 0.0
2017-Dec-07 14:24S 24°05' W 046°18'0 0.0
2017-Dec-07 14:00S 24°05' W 046°18'0 0.0
2017-Dec-07 13:30S 24°05' W 046°18'0 0.0
2017-Dec-07 13:00S 24°05' W 046°18'0 0.0
2017-Dec-07 12:30S 24°05' W 046°18'0 0.0
2017-Dec-07 12:00S 24°05' W 046°18'0 0.0
2017-Dec-07 11:27S 24°05' W 046°18'0 0.0
2017-Dec-07 11:00S 24°05' W 046°18'0 0.0
2017-Dec-07 10:30S 24°05' W 046°18'0 0.0
2017-Dec-07 10:00S 24°05' W 046°18'0 0.0
2017-Dec-07 09:30S 24°05' W 046°18'0 0.0
2017-Dec-07 09:00S 24°05' W 046°18'0 0.0
2017-Dec-07 08:30S 24°05' W 046°18'0 0.0
2017-Dec-07 08:00S 24°05' W 046°18'0 0.0
2017-Dec-07 07:27S 24°05' W 046°18'0 0.0
2017-Dec-07 07:00S 24°05' W 046°18'0 0.0
2017-Dec-07 06:30S 24°05' W 046°18'0 0.0
2017-Dec-07 06:00S 24°05' W 046°18'0 0.0
2017-Dec-07 05:24S 24°05' W 046°18'0 0.0
2017-Dec-07 05:00S 24°05' W 046°18'0 0.0
2017-Dec-07 04:18S 24°05' W 046°18'0 0.0
2017-Dec-07 03:54S 24°05' W 046°18'0 0.0
2017-Dec-07 03:30S 24°05' W 046°18'0 0.0
2017-Dec-07 02:54S 24°05' W 046°18'0 0.0
2017-Dec-07 02:30S 24°05' W 046°18'0 0.0
2017-Dec-07 01:57S 24°05' W 046°18'0 0.0
2017-Dec-07 01:30S 24°05' W 046°18'0 0.0
2017-Dec-07 00:48S 24°05' W 046°18'0 0.0
2017-Dec-07 00:30S 24°05' W 046°18'0 0.0
2017-Dec-07 00:00S 24°05' W 046°18'0 0.0
2017-Dec-06 23:30S 24°05' W 046°18'0 0.0
2017-Dec-06 23:00S 24°05' W 046°18'0 0.0
2017-Dec-06 22:18S 24°05' W 046°18'0 0.0
2017-Dec-06 22:00S 24°05' W 046°18'0 0.0
2017-Dec-06 21:12S 24°05' W 046°18'0 0.0
2017-Dec-06 21:00S 24°05' W 046°18'  
Track history (hours):
 
Tides and Currents Weather Stations Pressure Air Temp Water Temp Dewpoint Dewpoint Depression Visibility Wind Speed Wind Dir Waves Ship Positions

Nordic Dalian

Last reported at 2017-Dec-15 01:01 UTC. Time now 2017-Dec-18 05:17 UTC.
Position S 24°13' W 045°57'.

Length 180 m; draft 7.2 m.

Type: Cargo ship. MMSI: 636092759.

Date/timePositionNaut miles runAvg speedWind from/ knotsBaromVisibWave heightAir tempDewpointWater temp
2017-Dec-15 01:01S 24°13' W 045°57'511.0
2017-Dec-15 00:31S 24°11' W 046°03'20 0.7
2017-Dec-13 21:26S 23°57' W 046°18'2 5.3
2017-Dec-13 21:00S 23°60' W 046°19'3 6.0
2017-Dec-13 20:30S 24°02' W 046°20'3 5.2
2017-Dec-13 20:00S 24°04' W 046°18'1 1.9
2017-Dec-13 19:30S 24°05' W 046°18'0 0.0
2017-Dec-13 19:00S 24°05' W 046°18'0 0.0
2017-Dec-13 18:30S 24°05' W 046°18'0 0.0
2017-Dec-13 18:00S 24°05' W 046°18'0 0.0
2017-Dec-13 17:30S 24°05' W 046°18'0 0.0
2017-Dec-13 16:54S 24°05' W 046°18'0 0.0
2017-Dec-13 16:30S 24°05' W 046°18'0 0.0
2017-Dec-13 16:00S 24°05' W 046°18'0 0.0
2017-Dec-13 15:30S 24°05' W 046°18'0 0.0
2017-Dec-13 15:00S 24°05' W 046°18'0 0.0
2017-Dec-13 14:30S 24°05' W 046°18'0 0.0
2017-Dec-13 14:00S 24°05' W 046°18'0 0.0
2017-Dec-13 13:30S 24°05' W 046°18'0 0.0
2017-Dec-13 13:00S 24°05' W 046°18'0 0.0
2017-Dec-13 12:30S 24°05' W 046°18'0 0.0
2017-Dec-13 12:00S 24°05' W 046°18'0 0.0
2017-Dec-13 11:30S 24°05' W 046°18'0 0.0
2017-Dec-13 11:00S 24°05' W 046°18'0 0.0
2017-Dec-13 10:30S 24°05' W 046°18'0 0.0
2017-Dec-13 10:00S 24°05' W 046°18'0 0.0
2017-Dec-13 09:30S 24°05' W 046°18'0 0.0
2017-Dec-13 08:48S 24°05' W 046°18'0 0.0
2017-Dec-13 08:30S 24°05' W 046°18'0 0.0
2017-Dec-13 08:00S 24°05' W 046°18'0 0.0
2017-Dec-13 07:21S 24°05' W 046°18'0 0.0
2017-Dec-13 07:00S 24°05' W 046°18'0 0.0
2017-Dec-13 06:30S 24°05' W 046°18'0 0.0
2017-Dec-13 06:00S 24°05' W 046°18'0 0.0
2017-Dec-13 05:30S 24°05' W 046°18'0 0.0
2017-Dec-13 05:00S 24°05' W 046°18'0 0.0
2017-Dec-13 04:30S 24°05' W 046°18'0 0.0
2017-Dec-13 04:00S 24°05' W 046°18'0 0.0
2017-Dec-13 03:24S 24°05' W 046°18'0 0.0
2017-Dec-13 03:00S 24°05' W 046°18'0 0.0
2017-Dec-13 02:30S 24°05' W 046°18'0 0.1
2017-Dec-13 02:00S 24°05' W 046°18'0 0.0
2017-Dec-13 01:30S 24°05' W 046°18'0 0.0
2017-Dec-13 01:00S 24°05' W 046°18'0 0.0
2017-Dec-13 00:30S 24°05' W 046°18'0 0.0
2017-Dec-13 00:00S 24°05' W 046°18'0 0.0
2017-Dec-12 23:30S 24°05' W 046°18'0 0.0
2017-Dec-12 23:00S 24°05' W 046°18'0 0.0
2017-Dec-12 22:24S 24°05' W 046°18'0 0.0
2017-Dec-12 22:00S 24°05' W 046°18'0 0.0
2017-Dec-12 21:30S 24°05' W 046°18'0 0.0
2017-Dec-12 21:00S 24°05' W 046°18'0 0.0
2017-Dec-12 20:30S 24°05' W 046°18'0 0.0
2017-Dec-12 20:00S 24°05' W 046°18'0 0.0
2017-Dec-12 19:30S 24°05' W 046°18'0 0.0
2017-Dec-12 18:54S 24°05' W 046°18'0 0.0
2017-Dec-12 18:30S 24°05' W 046°18'0 0.0
2017-Dec-12 18:00S 24°05' W 046°18'0 0.1
2017-Dec-12 17:30S 24°05' W 046°18'0 0.1
2017-Dec-12 17:00S 24°05' W 046°18'0 0.0
2017-Dec-12 16:30S 24°05' W 046°18'0 0.0
2017-Dec-12 16:00S 24°05' W 046°18'0 0.0
2017-Dec-12 15:27S 24°05' W 046°18'0 0.1
2017-Dec-12 15:00S 24°05' W 046°18'0 0.0
2017-Dec-12 14:30S 24°05' W 046°18'0 0.0
2017-Dec-12 14:00S 24°05' W 046°18'0 0.0
2017-Dec-12 13:30S 24°05' W 046°18'0 0.0
2017-Dec-12 13:00S 24°05' W 046°18'0 0.0
2017-Dec-12 12:18S 24°05' W 046°18'0 0.0
2017-Dec-12 12:00S 24°05' W 046°18'0 0.0
2017-Dec-12 11:27S 24°05' W 046°18'0 0.0
2017-Dec-12 11:00S 24°05' W 046°18'0 0.0
2017-Dec-12 10:30S 24°05' W 046°18'0 0.0
2017-Dec-12 09:57S 24°05' W 046°18'0 0.0
2017-Dec-12 09:30S 24°05' W 046°18'0 0.0
2017-Dec-12 08:54S 24°05' W 046°18'0 0.0
2017-Dec-12 08:30S 24°05' W 046°18'0 0.0
2017-Dec-12 08:00S 24°05' W 046°18'0 0.0
2017-Dec-12 07:30S 24°05' W 046°18'0 0.0
2017-Dec-12 06:57S 24°05' W 046°18'0 0.0
2017-Dec-12 06:30S 24°05' W 046°18'0 0.0
2017-Dec-12 06:00S 24°05' W 046°18'0 0.0
2017-Dec-12 05:27S 24°05' W 046°18'0 0.0
2017-Dec-12 05:00S 24°05' W 046°18'0 0.0
2017-Dec-12 04:27S 24°05' W 046°18'0 0.0
2017-Dec-12 04:00S 24°05' W 046°18'0 0.0
2017-Dec-12 03:30S 24°05' W 046°18'0 0.0
2017-Dec-12 02:57S 24°05' W 046°18'0 0.0
2017-Dec-12 02:30S 24°05' W 046°18'0 0.0
2017-Dec-12 01:57S 24°05' W 046°18'0 0.1
2017-Dec-12 01:24S 24°05' W 046°18'0 0.1
2017-Dec-12 01:00S 24°05' W 046°18'0 0.0
2017-Dec-12 00:30S 24°05' W 046°18'0 0.0
2017-Dec-12 00:00S 24°05' W 046°18'0 0.0
2017-Dec-11 23:18S 24°05' W 046°18'0 0.1
2017-Dec-11 23:00S 24°05' W 046°18'0 0.0
2017-Dec-11 22:30S 24°05' W 046°18'0 0.1
2017-Dec-11 22:00S 24°05' W 046°18'0 0.1
2017-Dec-11 21:24S 24°05' W 046°18'0 0.0
2017-Dec-11 20:54S 24°05' W 046°18'0 0.0
2017-Dec-11 20:30S 24°05' W 046°18'0 0.0
2017-Dec-11 20:00S 24°05' W 046°18'0 0.0
2017-Dec-11 19:30S 24°05' W 046°18'0 0.1
2017-Dec-11 19:00S 24°05' W 046°18'0 0.0
2017-Dec-11 18:30S 24°05' W 046°18'0 0.0
2017-Dec-11 18:00S 24°05' W 046°18'0 0.0
2017-Dec-11 17:30S 24°05' W 046°18'0 0.1
2017-Dec-11 17:00S 24°05' W 046°18'0 0.1
2017-Dec-11 16:30S 24°05' W 046°18'0 0.1
2017-Dec-11 15:54S 24°05' W 046°18'0 0.1
2017-Dec-11 15:30S 24°05' W 046°18'0 0.0
2017-Dec-11 15:00S 24°05' W 046°18'0 0.0
2017-Dec-11 14:30S 24°05' W 046°18'0 0.0
2017-Dec-11 14:00S 24°05' W 046°18'0 0.0
2017-Dec-11 13:30S 24°05' W 046°18'0 0.0
2017-Dec-11 13:00S 24°05' W 046°18'0 0.0
2017-Dec-11 12:30S 24°05' W 046°18'0 0.0
2017-Dec-11 12:00S 24°05' W 046°18'0 0.0
2017-Dec-11 11:30S 24°05' W 046°18'0 0.0
2017-Dec-11 11:00S 24°05' W 046°18'0 0.0
2017-Dec-11 10:24S 24°05' W 046°18'0 0.0
2017-Dec-11 10:00S 24°05' W 046°18'0 0.0
2017-Dec-11 09:30S 24°05' W 046°18'0 0.0
2017-Dec-11 09:00S 24°05' W 046°18'0 0.0
2017-Dec-11 08:30S 24°05' W 046°18'0 0.0
2017-Dec-11 08:00S 24°05' W 046°18'0 0.0
2017-Dec-11 07:30S 24°05' W 046°18'0 0.0
2017-Dec-11 07:00S 24°05' W 046°18'0 0.0
2017-Dec-11 06:30S 24°05' W 046°18'0 0.0
2017-Dec-11 06:00S 24°05' W 046°18'0 0.0
2017-Dec-11 05:30S 24°05' W 046°18'0 0.0
2017-Dec-11 05:00S 24°05' W 046°18'0 0.0
2017-Dec-11 04:30S 24°05' W 046°18'0 0.0
2017-Dec-11 03:54S 24°05' W 046°18'0 0.0
2017-Dec-11 02:42S 24°05' W 046°18'0 0.0
2017-Dec-11 02:30S 24°05' W 046°18'0 0.0
2017-Dec-11 02:00S 24°05' W 046°18'0 0.0
2017-Dec-11 01:30S 24°05' W 046°18'0 0.0
2017-Dec-11 00:57S 24°05' W 046°18'0 0.0
2017-Dec-11 00:30S 24°05' W 046°18'0 0.0
2017-Dec-11 00:00S 24°05' W 046°18'0 0.0
2017-Dec-10 23:30S 24°05' W 046°18'0 0.0
2017-Dec-10 22:57S 24°05' W 046°18'0 0.0
2017-Dec-10 22:30S 24°05' W 046°18'0 0.0
2017-Dec-10 22:00S 24°05' W 046°18'0 0.0
2017-Dec-10 21:30S 24°05' W 046°18'0 0.0
2017-Dec-10 21:00S 24°05' W 046°18'0 0.0
2017-Dec-10 20:30S 24°05' W 046°18'0 0.0
2017-Dec-10 20:00S 24°05' W 046°18'0 0.0
2017-Dec-10 19:30S 24°05' W 046°18'0 0.0
2017-Dec-10 18:54S 24°05' W 046°18'0 0.0
2017-Dec-10 18:30S 24°05' W 046°18'0 0.0
2017-Dec-10 17:57S 24°05' W 046°18'0 0.0
2017-Dec-10 17:30S 24°05' W 046°18'0 0.0
2017-Dec-10 17:00S 24°05' W 046°18'0 0.0
2017-Dec-10 16:30S 24°05' W 046°18'0 0.0
2017-Dec-10 16:00S 24°05' W 046°18'0 0.1
2017-Dec-10 15:30S 24°05' W 046°18'0 0.1
2017-Dec-10 15:00S 24°05' W 046°18'0 0.1
2017-Dec-10 14:30S 24°05' W 046°18'0 0.1
2017-Dec-10 14:00S 24°05' W 046°18'0 0.0
2017-Dec-10 13:30S 24°05' W 046°18'0 0.0
2017-Dec-10 13:00S 24°05' W 046°18'0 0.0
2017-Dec-10 12:24S 24°05' W 046°18'0 0.0
2017-Dec-10 12:00S 24°05' W 046°18'0 0.1
2017-Dec-10 11:30S 24°05' W 046°18'0 0.0
2017-Dec-10 11:00S 24°05' W 046°18'0 0.0
2017-Dec-10 10:30S 24°05' W 046°18'0 0.0
2017-Dec-10 10:00S 24°05' W 046°18'0 0.1
2017-Dec-10 09:30S 24°05' W 046°18'0 0.0
2017-Dec-10 09:00S 24°05' W 046°18'0 0.0
2017-Dec-10 08:30S 24°05' W 046°18'0 0.0
2017-Dec-10 08:00S 24°05' W 046°18'0 0.0
2017-Dec-10 07:30S 24°05' W 046°18'0 0.0
2017-Dec-10 07:00S 24°05' W 046°18'0 0.1
2017-Dec-10 06:30S 24°05' W 046°18'0 0.0
2017-Dec-10 06:00S 24°05' W 046°18'0 0.0
2017-Dec-10 05:30S 24°05' W 046°18'0 0.0
2017-Dec-10 05:00S 24°05' W 046°18'0 0.1
2017-Dec-10 04:12S 24°05' W 046°18'0 0.0
2017-Dec-10 04:00S 24°05' W 046°18'0 0.0
2017-Dec-10 03:30S 24°05' W 046°18'0 0.1
2017-Dec-10 03:00S 24°05' W 046°18'0 0.1
2017-Dec-10 02:30S 24°05' W 046°18'0 0.0
2017-Dec-10 02:00S 24°05' W 046°18'0 0.1
2017-Dec-10 01:30S 24°05' W 046°18'0 0.0
2017-Dec-10 01:00S 24°05' W 046°18'0 0.0
2017-Dec-10 00:24S 24°05' W 046°18'0 0.0
2017-Dec-09 23:54S 24°05' W 046°18'0 0.0
2017-Dec-09 23:30S 24°05' W 046°18'0 0.0
2017-Dec-09 23:00S 24°05' W 046°18'0 0.0
2017-Dec-09 22:30S 24°05' W 046°18'0 0.0
2017-Dec-09 22:00S 24°05' W 046°18'0 0.1
2017-Dec-09 21:30S 24°05' W 046°18'0 0.1
2017-Dec-09 21:00S 24°05' W 046°18'0 0.0
2017-Dec-09 20:30S 24°05' W 046°18'0 0.0
2017-Dec-09 20:00S 24°05' W 046°18'0 0.0
2017-Dec-09 19:30S 24°05' W 046°18'0 0.0
2017-Dec-09 19:00S 24°05' W 046°18'0 0.0
2017-Dec-09 18:30S 24°05' W 046°18'0 0.0
2017-Dec-09 17:51S 24°05' W 046°18'0 0.0
2017-Dec-09 17:30S 24°05' W 046°18'0 0.0
2017-Dec-09 17:00S 24°05' W 046°18'0 0.0
2017-Dec-09 16:30S 24°05' W 046°18'0 0.0
2017-Dec-09 16:00S 24°05' W 046°18'0 0.0
2017-Dec-09 15:24S 24°05' W 046°18'0 0.0
2017-Dec-09 14:57S 24°05' W 046°18'0 0.0
2017-Dec-09 14:30S 24°05' W 046°18'0 0.0
2017-Dec-09 14:00S 24°05' W 046°18'0 0.1
2017-Dec-09 13:30S 24°05' W 046°18'0 0.0
2017-Dec-09 13:00S 24°05' W 046°18'0 0.0
2017-Dec-09 12:30S 24°05' W 046°18'0 0.0
2017-Dec-09 12:00S 24°05' W 046°18'0 0.1
2017-Dec-09 11:30S 24°05' W 046°18'0 0.1
2017-Dec-09 11:00S 24°05' W 046°18'0 0.0
2017-Dec-09 10:27S 24°05' W 046°18'0 0.1
2017-Dec-09 10:00S 24°05' W 046°18'0 0.0
2017-Dec-09 09:30S 24°05' W 046°18'0 0.0
2017-Dec-09 09:00S 24°05' W 046°18'0 0.0
2017-Dec-09 08:30S 24°05' W 046°18'0 0.0
2017-Dec-09 08:00S 24°05' W 046°18'0 0.0
2017-Dec-09 07:30S 24°05' W 046°18'0 0.0
2017-Dec-09 06:57S 24°05' W 046°18'0 0.0
2017-Dec-09 06:30S 24°05' W 046°18'0 0.1
2017-Dec-09 06:00S 24°05' W 046°18'0 0.0
2017-Dec-09 05:27S 24°05' W 046°18'0 0.0
2017-Dec-09 05:00S 24°05' W 046°18'0 0.0
2017-Dec-09 04:30S 24°05' W 046°18'0 0.0
2017-Dec-09 03:57S 24°05' W 046°18'0 0.0
2017-Dec-09 03:30S 24°05' W 046°18'0 0.0
2017-Dec-09 03:00S 24°05' W 046°18'0 0.0
2017-Dec-09 02:30S 24°05' W 046°18'0 0.0
2017-Dec-09 01:57S 24°05' W 046°18'0 0.0
2017-Dec-09 01:30S 24°05' W 046°18'0 0.0
2017-Dec-09 01:00S 24°05' W 046°18'0 0.0
2017-Dec-09 00:30S 24°05' W 046°18'0 0.0
2017-Dec-09 00:00S 24°05' W 046°18'0 0.0
2017-Dec-08 23:24S 24°05' W 046°18'0 0.0
2017-Dec-08 23:00S 24°05' W 046°18'0 0.0
2017-Dec-08 22:18S 24°05' W 046°18'0 0.1
2017-Dec-08 22:00S 24°05' W 046°18'0 0.0
2017-Dec-08 21:30S 24°05' W 046°18'0 0.0
2017-Dec-08 20:48S 24°05' W 046°18'0 0.0
2017-Dec-08 20:24S 24°05' W 046°18'0 0.0
2017-Dec-08 19:48S 24°05' W 046°18'0 0.1
2017-Dec-08 19:30S 24°05' W 046°18'0 0.0
2017-Dec-08 19:00S 24°05' W 046°18'0 0.0
2017-Dec-08 18:30S 24°05' W 046°18'0 0.0
2017-Dec-08 18:00S 24°05' W 046°18'0 0.0
2017-Dec-08 17:30S 24°05' W 046°18'0 0.0
2017-Dec-08 16:54S 24°05' W 046°18'0 0.0
2017-Dec-08 16:30S 24°05' W 046°18'0 0.0
2017-Dec-08 15:54S 24°05' W 046°18'0 0.1
2017-Dec-08 15:30S 24°05' W 046°18'0 0.1
2017-Dec-08 15:00S 24°05' W 046°18'0 0.0
2017-Dec-08 14:30S 24°05' W 046°18'0 0.0
2017-Dec-08 14:00S 24°05' W 046°18'0 0.1
2017-Dec-08 13:30S 24°05' W 046°18'0 0.0
2017-Dec-08 13:00S 24°05' W 046°18'0 0.0
2017-Dec-08 12:24S 24°05' W 046°18'0 0.0
2017-Dec-08 11:48S 24°05' W 046°18'0 0.0
2017-Dec-08 11:30S 24°05' W 046°18'0 0.0
2017-Dec-08 11:00S 24°05' W 046°18'0 0.1
2017-Dec-08 10:30S 24°05' W 046°18'0 0.0
2017-Dec-08 10:00S 24°05' W 046°18'0 0.0
2017-Dec-08 09:30S 24°05' W 046°18'0 0.0
2017-Dec-08 08:57S 24°05' W 046°18'0 0.0
2017-Dec-08 08:30S 24°05' W 046°18'0 0.0
2017-Dec-08 08:00S 24°05' W 046°18'0 0.0
2017-Dec-08 07:30S 24°05' W 046°18'0 0.0
2017-Dec-08 07:00S 24°05' W 046°18'0 0.0
2017-Dec-08 06:30S 24°05' W 046°18'0 0.0
2017-Dec-08 06:00S 24°05' W 046°18'0 0.0
2017-Dec-08 05:30S 24°05' W 046°18'0 0.0
2017-Dec-08 05:00S 24°05' W 046°18'0 0.0
2017-Dec-08 04:30S 24°05' W 046°18'0 0.1
2017-Dec-08 03:54S 24°05' W 046°18'0 0.0
2017-Dec-08 03:30S 24°05' W 046°18'0 0.0
2017-Dec-08 03:00S 24°05' W 046°18'0 0.0
2017-Dec-08 02:30S 24°05' W 046°18'0 0.0
2017-Dec-08 01:48S 24°05' W 046°18'0 0.0
2017-Dec-08 01:30S 24°05' W 046°18'0 0.0
2017-Dec-08 00:54S 24°05' W 046°18'0 0.0
2017-Dec-08 00:30S 24°05' W 046°18'0 0.0
2017-Dec-08 00:00S 24°05' W 046°18'0 0.0
2017-Dec-07 23:12S 24°05' W 046°18'0 0.0
2017-Dec-07 22:57S 24°05' W 046°18'0 0.0
2017-Dec-07 22:21S 24°05' W 046°18'0 0.0
2017-Dec-07 21:54S 24°05' W 046°18'0 0.0
2017-Dec-07 21:24S 24°05' W 046°18'0 0.0
2017-Dec-07 21:00S 24°05' W 046°18'0 0.0
2017-Dec-07 20:30S 24°05' W 046°18'0 0.0
2017-Dec-07 20:00S 24°05' W 046°18'0 0.0
2017-Dec-07 19:30S 24°05' W 046°18'0 0.0
2017-Dec-07 19:00S 24°05' W 046°18'0 0.0
2017-Dec-07 18:24S 24°05' W 046°18'0 0.0
2017-Dec-07 17:54S 24°05' W 046°18'0 0.0
2017-Dec-07 17:24S 24°05' W 046°18'0 0.0
2017-Dec-07 17:00S 24°05' W 046°18'0 0.0
2017-Dec-07 16:30S 24°05' W 046°18'0 0.0
2017-Dec-07 15:57S 24°05' W 046°18'0 0.0
2017-Dec-07 15:30S 24°05' W 046°18'0 0.0
2017-Dec-07 14:54S 24°05' W 046°18'0 0.0
2017-Dec-07 14:24S 24°05' W 046°18'0 0.0
2017-Dec-07 14:00S 24°05' W 046°18'0 0.0
2017-Dec-07 13:30S 24°05' W 046°18'0 0.0
2017-Dec-07 13:00S 24°05' W 046°18'0 0.0
2017-Dec-07 12:30S 24°05' W 046°18'0 0.0
2017-Dec-07 12:00S 24°05' W 046°18'0 0.0
2017-Dec-07 11:27S 24°05' W 046°18'0 0.0
2017-Dec-07 11:00S 24°05' W 046°18'0 0.0
2017-Dec-07 10:30S 24°05' W 046°18'0 0.0
2017-Dec-07 10:00S 24°05' W 046°18'0 0.0
2017-Dec-07 09:30S 24°05' W 046°18'0 0.0
2017-Dec-07 09:00S 24°05' W 046°18'0 0.0
2017-Dec-07 08:30S 24°05' W 046°18'0 0.0
2017-Dec-07 08:00S 24°05' W 046°18'0 0.0
2017-Dec-07 07:27S 24°05' W 046°18'0 0.0
2017-Dec-07 07:00S 24°05' W 046°18'0 0.0
2017-Dec-07 06:30S 24°05' W 046°18'0 0.0
2017-Dec-07 06:00S 24°05' W 046°18'0 0.0
2017-Dec-07 05:24S 24°05' W 046°18'0 0.0
2017-Dec-07 05:00S 24°05' W 046°18'0 0.0
2017-Dec-07 04:18S 24°05' W 046°18'0 0.0
2017-Dec-07 03:54S 24°05' W 046°18'0 0.0
2017-Dec-07 03:30S 24°05' W 046°18'0 0.0
2017-Dec-07 02:54S 24°05' W 046°18'0 0.0
2017-Dec-07 02:30S 24°05' W 046°18'0 0.0
2017-Dec-07 01:57S 24°05' W 046°18'0 0.0
2017-Dec-07 01:30S 24°05' W 046°18'0 0.0
2017-Dec-07 00:48S 24°05' W 046°18'0 0.0
2017-Dec-07 00:30S 24°05' W 046°18'0 0.0
2017-Dec-07 00:00S 24°05' W 046°18'0 0.0
2017-Dec-06 23:30S 24°05' W 046°18'0 0.0
2017-Dec-06 23:00S 24°05' W 046°18'0 0.0
2017-Dec-06 22:18S 24°05' W 046°18'0 0.0
2017-Dec-06 22:00S 24°05' W 046°18'0 0.0
2017-Dec-06 21:12S 24°05' W 046°18'0 0.0
2017-Dec-06 21:00S 24°05' W 046°18'  

Dump ship's entire track history